createdAt,value
2022-11-18T00:00:37.855Z,1.00
2022-11-18T00:03:06.988Z,1.00
2022-11-18T00:05:36.735Z,1.00
2022-11-18T00:08:06.490Z,1.00
2022-11-18T00:10:35.868Z,1.00
2022-11-18T00:13:22.784Z,1.00
2022-11-18T00:16:02.605Z,1.00
2022-11-18T00:18:32.011Z,0.90
2022-11-18T00:21:04.203Z,0.90
2022-11-18T00:23:33.580Z,1.00
2022-11-18T00:26:06.655Z,1.10
2022-11-18T00:28:37.596Z,1.00
2022-11-18T00:31:11.752Z,1.00
2022-11-18T00:33:41.616Z,1.00
2022-11-18T00:36:12.827Z,0.90
2022-11-18T00:38:42.599Z,0.90
2022-11-18T00:41:13.720Z,0.80
2022-11-18T00:43:43.051Z,0.80
2022-11-18T00:46:14.090Z,0.80
2022-11-18T00:48:43.503Z,0.80
2022-11-18T00:51:16.070Z,0.80
2022-11-18T00:53:45.989Z,0.80
2022-11-18T00:56:15.295Z,0.80
2022-11-18T00:58:45.004Z,0.80
2022-11-18T01:01:16.199Z,0.80
2022-11-18T01:03:45.883Z,0.80
2022-11-18T01:06:15.203Z,0.80
2022-11-18T01:08:44.643Z,0.80
2022-11-18T01:11:30.823Z,0.80
2022-11-18T01:14:00.158Z,0.80
2022-11-18T01:16:31.491Z,0.80
2022-11-18T01:19:00.477Z,0.80
2022-11-18T01:21:31.124Z,0.80
2022-11-18T01:24:19.011Z,0.70
2022-11-18T01:26:48.178Z,0.80
2022-11-18T01:29:17.754Z,0.70
2022-11-18T01:32:16.860Z,0.70
2022-11-18T01:34:37.965Z,0.70
2022-11-18T01:37:07.182Z,0.70
2022-11-18T01:39:36.498Z,0.70
2022-11-18T01:42:06.138Z,0.70
2022-11-18T01:44:59.311Z,0.70
2022-11-18T01:47:35.039Z,0.60
2022-11-18T01:50:05.193Z,0.60
2022-11-18T01:52:35.814Z,0.60
2022-11-18T01:55:11.750Z,0.60
2022-11-18T01:57:41.351Z,0.60
2022-11-18T02:00:11.579Z,0.60
2022-11-18T02:02:42.373Z,0.60
2022-11-18T02:05:14.043Z,0.60
2022-11-18T02:07:44.841Z,0.60
2022-11-18T02:10:22.259Z,0.50
2022-11-18T02:12:52.971Z,0.60
2022-11-18T02:15:28.984Z,0.60
2022-11-18T02:18:07.812Z,0.60
2022-11-18T02:20:39.277Z,0.60
2022-11-18T02:23:40.823Z,0.60
2022-11-18T02:26:51.521Z,0.60
2022-11-18T02:29:26.230Z,0.50
2022-11-18T02:32:01.218Z,0.50
2022-11-18T02:34:42.370Z,0.50
2022-11-18T02:37:19.836Z,0.50
2022-11-18T02:39:56.559Z,0.80
2022-11-18T02:42:28.911Z,0.50
2022-11-18T02:45:04.641Z,0.50
2022-11-18T02:47:37.591Z,0.50
2022-11-18T02:50:10.104Z,0.40
2022-11-18T02:52:42.094Z,0.50
2022-11-18T02:55:14.297Z,0.80
2022-11-18T02:57:45.885Z,0.50
2022-11-18T03:00:19.410Z,0.50
2022-11-18T03:02:51.465Z,0.50
2022-11-18T03:05:25.399Z,0.40
2022-11-18T03:08:00.580Z,0.50
2022-11-18T03:10:37.621Z,0.50
2022-11-18T03:13:12.962Z,0.40
2022-11-18T03:15:51.061Z,0.40
2022-11-18T03:18:28.905Z,0.40
2022-11-18T03:21:03.662Z,0.40
2022-11-18T03:23:38.408Z,0.40
2022-11-18T03:26:11.768Z,0.50
2022-11-18T03:28:46.356Z,0.50
2022-11-18T03:31:23.766Z,0.40
2022-11-18T03:33:56.789Z,0.50
2022-11-18T03:36:29.814Z,0.50
2022-11-18T03:39:02.552Z,0.40
2022-11-18T03:41:37.501Z,0.50
2022-11-18T03:44:12.040Z,0.40
2022-11-18T03:46:47.624Z,0.50
2022-11-18T03:49:22.723Z,0.50
2022-11-18T03:51:56.982Z,0.50
2022-11-18T03:54:30.108Z,0.50
2022-11-18T03:57:02.195Z,0.50
2022-11-18T03:59:36.168Z,0.50
2022-11-18T04:02:13.520Z,0.50
2022-11-18T04:04:43.751Z,0.50
2022-11-18T04:07:21.387Z,0.40
2022-11-18T04:09:59.872Z,0.40
2022-11-18T04:12:34.013Z,0.40
2022-11-18T04:15:03.664Z,0.40
2022-11-18T04:17:34.416Z,0.40
2022-11-18T04:20:03.616Z,0.30
2022-11-18T04:22:32.836Z,0.20
2022-11-18T04:25:01.982Z,0.20
2022-11-18T04:27:31.115Z,0.30
2022-11-18T04:30:00.093Z,0.30
2022-11-18T04:32:29.123Z,0.30
2022-11-18T04:35:00.892Z,0.20
2022-11-18T04:37:30.455Z,0.20
2022-11-18T04:39:59.887Z,0.20
2022-11-18T04:42:29.451Z,0.20
2022-11-18T04:44:59.235Z,0.20
2022-11-18T04:47:28.135Z,0.10
2022-11-18T04:49:57.431Z,0.20
2022-11-18T04:52:28.319Z,0.10
2022-11-18T04:54:57.639Z,0.10
2022-11-18T04:57:26.900Z,0.20
2022-11-18T04:59:56.293Z,0.10
2022-11-18T05:02:25.789Z,0.10
2022-11-18T05:04:54.907Z,0.10
2022-11-18T05:07:26.434Z,0.00
2022-11-18T05:09:56.964Z,0.00
2022-11-18T05:12:43.165Z,0.00
2022-11-18T05:15:12.540Z,-0.10
2022-11-18T05:17:41.436Z,-0.10
2022-11-18T05:20:11.640Z,-0.10
2022-11-18T05:22:40.897Z,-0.10
2022-11-18T05:25:12.908Z,-0.20
2022-11-18T05:27:42.595Z,-0.20
2022-11-18T05:30:12.975Z,-0.20
2022-11-18T05:32:42.399Z,-0.20
2022-11-18T05:35:11.999Z,-0.20
2022-11-18T05:37:41.069Z,-0.30
2022-11-18T05:40:14.119Z,-0.10
2022-11-18T05:43:00.406Z,-0.20
2022-11-18T05:45:29.736Z,-0.30
2022-11-18T05:48:05.186Z,-0.30
2022-11-18T05:50:36.256Z,-0.30
2022-11-18T05:53:06.437Z,-0.30
2022-11-18T05:55:42.473Z,-0.40
2022-11-18T05:58:12.375Z,-0.30
2022-11-18T06:01:01.450Z,-0.40
2022-11-18T06:03:34.879Z,-0.50
2022-11-18T06:06:06.269Z,-0.40
2022-11-18T06:08:39.607Z,-0.50
2022-11-18T06:11:13.613Z,-0.50
2022-11-18T06:13:50.779Z,-0.50
2022-11-18T06:16:23.074Z,-0.50
2022-11-18T06:18:52.649Z,-0.60
2022-11-18T06:21:22.294Z,-0.60
2022-11-18T06:23:52.354Z,-0.60
2022-11-18T06:26:23.342Z,-0.60
2022-11-18T06:28:52.370Z,-0.60
2022-11-18T06:31:21.513Z,-0.50
2022-11-18T06:33:50.792Z,-0.60
2022-11-18T06:36:19.871Z,-0.50
2022-11-18T06:38:49.236Z,-0.60
2022-11-18T06:41:18.643Z,-0.60
2022-11-18T06:43:49.790Z,-0.50
2022-11-18T06:46:37.465Z,-0.60
2022-11-18T06:49:07.054Z,-0.60
2022-11-18T06:51:36.021Z,-0.60
2022-11-18T06:54:10.429Z,-0.60
2022-11-18T06:56:40.439Z,-0.60
2022-11-18T06:59:11.801Z,-0.60
2022-11-18T07:01:43.315Z,-0.60
2022-11-18T07:04:13.839Z,-0.60
2022-11-18T07:06:43.241Z,-0.40
2022-11-18T07:09:12.573Z,-0.60
2022-11-18T07:11:41.784Z,-0.60
2022-11-18T07:14:15.407Z,-0.70
2022-11-18T07:16:44.752Z,-0.70
2022-11-18T07:19:15.996Z,-0.70
2022-11-18T07:21:46.886Z,-0.70
2022-11-18T07:24:17.631Z,-0.70
2022-11-18T07:26:46.802Z,-0.80
2022-11-18T07:29:18.020Z,-0.70
2022-11-18T07:31:47.552Z,-0.80
2022-11-18T07:34:16.951Z,-0.80
2022-11-18T07:36:46.590Z,-0.80
2022-11-18T07:39:16.216Z,-0.80
2022-11-18T07:41:45.892Z,-0.80
2022-11-18T07:44:18.413Z,-0.80
2022-11-18T07:46:48.285Z,-0.80
2022-11-18T07:49:18.164Z,-0.80
2022-11-18T07:51:47.836Z,-0.80
2022-11-18T07:54:19.724Z,-0.80
2022-11-18T07:56:50.513Z,-0.80
2022-11-18T07:59:21.624Z,-0.90
2022-11-18T08:01:51.849Z,-1.00
2022-11-18T08:04:21.208Z,-1.00
2022-11-18T08:06:50.611Z,-1.00
2022-11-18T08:09:20.043Z,-0.90
2022-11-18T08:11:49.640Z,-1.00
2022-11-18T08:14:20.188Z,-1.10
2022-11-18T08:16:49.492Z,-1.10
2022-11-18T08:19:19.405Z,-1.00
2022-11-18T08:21:49.284Z,-1.00
2022-11-18T08:24:18.448Z,-1.00
2022-11-18T08:26:48.076Z,-1.00
2022-11-18T08:29:23.466Z,-1.00
2022-11-18T08:31:55.562Z,-0.90
2022-11-18T08:34:24.625Z,-0.90
2022-11-18T08:36:54.512Z,-0.90
2022-11-18T08:39:23.814Z,-0.80
2022-11-18T08:41:53.963Z,-0.80
2022-11-18T08:44:23.836Z,-0.30
2022-11-18T08:46:53.537Z,-0.50
2022-11-18T08:49:32.162Z,-0.60
2022-11-18T08:52:02.168Z,-0.50
2022-11-18T08:54:31.974Z,-0.50
2022-11-18T08:57:01.086Z,-0.60
2022-11-18T08:59:31.255Z,-0.60
2022-11-18T09:02:01.710Z,-0.60
2022-11-18T09:04:32.956Z,-0.60
2022-11-18T09:07:03.396Z,-0.60
2022-11-18T09:09:33.509Z,-0.70
2022-11-18T09:12:02.860Z,-0.70
2022-11-18T09:15:12.415Z,-0.80
2022-11-18T09:17:21.818Z,-0.80
2022-11-18T09:19:52.713Z,-0.80
2022-11-18T09:22:22.137Z,-0.70
2022-11-18T09:24:51.567Z,-0.70
2022-11-18T09:27:21.014Z,-0.60
2022-11-18T09:29:50.788Z,-0.80
2022-11-18T09:32:20.331Z,-0.80
2022-11-18T09:34:49.648Z,-0.70
2022-11-18T09:37:21.034Z,-0.70
2022-11-18T09:39:54.267Z,-0.70
2022-11-18T09:42:40.811Z,-0.80
2022-11-18T09:45:25.496Z,-0.80
2022-11-18T09:48:00.976Z,-0.70
2022-11-18T09:50:49.160Z,-0.70
2022-11-18T09:53:25.408Z,-0.70
2022-11-18T09:55:55.952Z,-0.60
2022-11-18T09:58:34.834Z,-0.70
2022-11-18T10:01:05.869Z,-0.70
2022-11-18T10:03:37.965Z,-0.70
2022-11-18T10:06:23.286Z,-0.70
2022-11-18T10:09:07.349Z,-0.60
2022-11-18T10:11:45.164Z,-0.50
2022-11-18T10:14:29.871Z,-0.40
2022-11-18T10:17:09.727Z,-0.40
2022-11-18T10:19:44.890Z,-0.30
2022-11-18T10:22:24.760Z,-0.20
2022-11-18T10:24:57.948Z,-0.30
2022-11-18T10:27:36.292Z,-0.30
2022-11-18T10:30:14.608Z,-1.00
2022-11-18T10:33:06.715Z,-0.50
2022-11-18T10:35:39.628Z,-0.40
2022-11-18T10:38:18.321Z,-0.40
2022-11-18T10:40:59.946Z,-0.30
2022-11-18T10:43:52.726Z,-0.40
2022-11-18T10:46:27.771Z,-0.30
2022-11-18T10:49:17.922Z,-0.40
2022-11-18T10:51:49.520Z,-0.40
2022-11-18T10:54:21.156Z,-0.50
2022-11-18T10:56:58.027Z,-0.40
2022-11-18T10:59:32.778Z,-0.20
2022-11-18T11:02:09.620Z,-0.30
2022-11-18T11:04:41.260Z,-0.30
2022-11-18T11:07:28.536Z,-0.30
2022-11-18T11:10:24.073Z,-0.30
2022-11-18T11:13:00.395Z,-0.20
2022-11-18T11:15:36.959Z,-0.20
2022-11-18T11:18:29.544Z,-0.10
2022-11-18T11:20:58.679Z,-0.10
2022-11-18T11:23:27.475Z,-0.30
2022-11-18T11:29:04.164Z,-0.30
2022-11-18T11:31:45.260Z,-0.30
2022-11-18T11:34:21.927Z,-0.30
2022-11-18T11:36:56.688Z,-1.00
2022-11-18T11:39:51.152Z,-0.40
2022-11-18T11:42:34.039Z,-0.50
2022-11-18T11:45:20.316Z,-0.50
2022-11-18T11:48:05.231Z,-0.40
2022-11-18T11:51:03.066Z,-0.50
2022-11-18T11:54:11.569Z,-0.50
2022-11-18T11:56:46.255Z,-0.50
2022-11-18T11:59:31.680Z,-0.60
2022-11-18T12:02:30.884Z,-0.60
2022-11-18T12:05:05.089Z,-0.60
2022-11-18T12:07:44.694Z,-0.70
2022-11-18T12:10:30.259Z,-0.20
2022-11-18T12:13:17.050Z,-0.80
2022-11-18T12:16:00.699Z,-0.80
2022-11-18T12:18:37.703Z,-0.80
2022-11-18T12:21:07.191Z,-0.80
2022-11-18T12:23:36.521Z,-0.90
2022-11-18T12:26:08.573Z,-0.90
2022-11-18T12:28:41.586Z,-0.90
2022-11-18T12:32:08.897Z,-0.90
2022-11-18T12:34:48.706Z,-1.00
2022-11-18T12:37:45.766Z,-1.00
2022-11-18T12:40:38.457Z,-1.00
2022-11-18T12:43:25.870Z,-1.00
2022-11-18T12:45:57.579Z,-1.00
2022-11-18T12:48:39.520Z,-1.00
2022-11-18T12:51:50.709Z,-1.00
2022-11-18T12:54:31.190Z,-1.00
2022-11-18T12:57:05.713Z,-1.10
2022-11-18T12:59:40.286Z,-1.10
2022-11-18T13:02:25.355Z,-1.20
2022-11-18T13:05:09.371Z,-1.20
2022-11-18T13:08:02.157Z,-1.20
2022-11-18T13:10:34.917Z,-1.30
2022-11-18T13:13:04.905Z,-1.20
2022-11-18T13:16:07.937Z,-1.20
2022-11-18T13:18:59.479Z,-1.20
2022-11-18T13:21:48.567Z,-1.30
2022-11-18T13:24:21.280Z,-1.20
2022-11-18T13:26:59.860Z,-1.30
2022-11-18T13:29:52.662Z,-1.30
2022-11-18T13:32:27.517Z,-1.40
2022-11-18T13:34:59.174Z,-1.40
2022-11-18T13:37:30.050Z,-1.40
2022-11-18T13:40:01.554Z,-1.40
2022-11-18T13:42:36.851Z,-1.50
2022-11-18T13:45:07.997Z,-1.40
2022-11-18T13:47:41.524Z,-1.50
2022-11-18T13:50:24.178Z,-1.50
2022-11-18T13:53:02.389Z,-1.40
2022-11-18T13:55:35.798Z,-1.50
2022-11-18T13:58:08.461Z,-1.60
2022-11-18T14:00:38.626Z,-1.70
2022-11-18T14:03:16.933Z,-1.80
2022-11-18T14:05:55.467Z,-1.70
2022-11-18T14:08:29.127Z,-1.80
2022-11-18T14:11:01.195Z,-1.70
2022-11-18T14:13:33.441Z,-1.70
2022-11-18T14:16:04.701Z,-1.70
2022-11-18T14:18:36.479Z,-1.70
2022-11-18T14:21:07.697Z,-1.70
2022-11-18T14:23:38.233Z,-1.60
2022-11-18T14:26:08.842Z,-1.60
2022-11-18T14:28:41.057Z,-1.60
2022-11-18T14:31:25.905Z,-1.60
2022-11-18T14:34:22.477Z,-1.60
2022-11-18T14:36:55.678Z,-1.60
2022-11-18T14:39:29.873Z,-1.80
2022-11-18T14:41:59.613Z,-1.90
2022-11-18T14:44:31.294Z,-2.00
2022-11-18T14:47:04.061Z,-2.10
2022-11-18T14:49:34.433Z,-2.20
2022-11-18T14:52:08.002Z,-1.90
2022-11-18T14:54:37.904Z,-2.40
2022-11-18T14:57:08.396Z,-2.30
2022-11-18T14:59:39.402Z,-2.50
2022-11-18T15:02:15.408Z,-2.60
2022-11-18T15:04:44.876Z,-2.70
2022-11-18T15:07:22.712Z,-2.90
2022-11-18T15:09:53.087Z,-3.00
2022-11-18T15:12:22.057Z,-3.00
2022-11-18T15:14:52.891Z,-3.00
2022-11-18T15:17:22.245Z,-3.00
2022-11-18T15:19:51.877Z,-3.10
2022-11-18T15:22:22.809Z,-3.30
2022-11-18T15:24:52.198Z,-3.30
2022-11-18T15:27:21.664Z,-3.40
2022-11-18T15:29:54.345Z,-3.50
2022-11-18T15:32:25.174Z,-3.60
2022-11-18T15:34:55.104Z,-3.70
2022-11-18T15:37:25.168Z,-3.50
2022-11-18T15:39:55.801Z,-3.90
2022-11-18T15:42:25.483Z,-4.00
2022-11-18T15:44:57.176Z,-3.90
2022-11-18T15:47:26.901Z,-3.90
2022-11-18T15:49:56.292Z,-4.00
2022-11-18T15:52:26.579Z,-4.10
2022-11-18T15:54:55.943Z,-4.00
2022-11-18T15:57:25.196Z,-3.90
2022-11-18T15:59:54.548Z,-3.90
2022-11-18T16:02:27.058Z,-3.90
2022-11-18T16:04:57.687Z,-3.80
2022-11-18T16:07:27.108Z,-3.90
2022-11-18T16:10:13.989Z,-4.00
2022-11-18T16:12:49.902Z,-4.20
2022-11-18T16:15:37.307Z,-4.30
2022-11-18T16:18:09.791Z,-4.30
2022-11-18T16:20:40.437Z,-4.30
2022-11-18T16:23:10.314Z,-4.40
2022-11-18T16:25:47.081Z,-4.40
2022-11-18T16:28:17.679Z,-4.50
2022-11-18T16:31:10.001Z,-4.60
2022-11-18T16:33:42.290Z,-4.50
2022-11-18T16:36:12.439Z,-4.20
2022-11-18T16:38:42.486Z,-4.10
2022-11-18T16:41:26.598Z,-4.10
2022-11-18T16:43:59.034Z,-4.00
2022-11-18T16:46:31.512Z,-3.80
2022-11-18T16:49:06.507Z,-3.70
2022-11-18T16:51:37.653Z,-3.60
2022-11-18T16:54:10.360Z,-3.50
2022-11-18T16:56:43.013Z,-3.40
2022-11-18T16:59:19.104Z,-3.40
2022-11-18T17:01:50.418Z,-3.30
2022-11-18T17:04:23.626Z,-3.20
2022-11-18T17:06:54.297Z,-3.10
2022-11-18T17:09:25.776Z,-3.00
2022-11-18T17:11:56.701Z,-2.80
2022-11-18T17:14:26.719Z,-2.80
2022-11-18T17:16:56.319Z,-2.70
2022-11-18T17:19:30.974Z,-2.70
2022-11-18T17:22:02.000Z,-2.70
2022-11-18T17:24:31.970Z,-2.70
2022-11-18T17:27:01.069Z,-2.60
2022-11-18T17:29:30.636Z,-2.50
2022-11-18T17:32:00.674Z,-2.50
2022-11-18T17:34:32.421Z,-2.50
2022-11-18T17:37:06.514Z,-2.40
2022-11-18T17:39:37.012Z,-2.40
2022-11-18T17:42:23.827Z,-2.40
2022-11-18T17:44:53.645Z,-2.30
2022-11-18T17:47:23.499Z,-2.30
2022-11-18T17:52:47.150Z,-2.30
2022-11-18T17:55:20.877Z,-2.10
2022-11-18T17:57:50.548Z,-2.10
2022-11-18T18:00:21.608Z,-2.10
2022-11-18T18:02:54.969Z,-2.10
2022-11-18T18:05:27.135Z,-2.10
2022-11-18T18:07:58.853Z,-2.00
2022-11-18T18:10:28.762Z,-2.00
2022-11-18T18:13:15.525Z,-2.10
2022-11-18T18:15:44.799Z,-2.10
2022-11-18T18:18:14.297Z,-2.20
2022-11-18T18:20:45.880Z,-2.10
2022-11-18T18:23:15.076Z,-2.20
2022-11-18T18:25:44.616Z,-2.10
2022-11-18T18:28:14.291Z,-2.10
2022-11-18T18:30:44.085Z,-2.10
2022-11-18T18:33:14.076Z,-2.10
2022-11-18T18:35:46.156Z,-2.10
2022-11-18T18:38:15.541Z,-2.10
2022-11-18T18:40:45.146Z,-2.00
2022-11-18T18:43:17.822Z,-2.00
2022-11-18T18:46:04.026Z,-1.90
2022-11-18T18:48:34.347Z,-1.90
2022-11-18T18:51:07.840Z,-2.00
2022-11-18T18:53:37.496Z,-1.90
2022-11-18T18:56:08.343Z,-1.80
2022-11-18T18:58:38.391Z,-1.70
2022-11-18T19:01:09.661Z,-1.70
2022-11-18T19:03:39.348Z,-1.80
2022-11-18T19:09:21.704Z,-1.80
2022-11-18T19:12:08.663Z,-1.80
2022-11-18T19:14:39.961Z,-1.50
2022-11-18T19:17:12.161Z,-1.80
2022-11-18T19:20:01.044Z,-1.80
2022-11-18T19:22:35.241Z,-1.80
2022-11-18T19:25:06.025Z,-1.80
2022-11-18T19:27:39.221Z,-1.10
2022-11-18T19:30:10.783Z,-1.80
2022-11-18T19:32:42.230Z,-1.80
2022-11-18T19:35:12.720Z,-1.70
2022-11-18T19:37:44.462Z,-1.60
2022-11-18T19:40:14.833Z,-1.60
2022-11-18T19:42:44.645Z,-1.60
2022-11-18T19:45:14.397Z,-1.70
2022-11-18T19:47:43.968Z,-1.60
2022-11-18T19:50:13.616Z,-1.60
2022-11-18T19:52:45.412Z,-1.60
2022-11-18T19:55:14.926Z,-1.50
2022-11-18T19:57:44.151Z,-1.50
2022-11-18T20:00:14.776Z,-1.50
2022-11-18T20:02:44.988Z,-1.50
2022-11-18T20:05:31.859Z,-1.50
2022-11-18T20:08:02.848Z,-1.50
2022-11-18T20:10:32.195Z,-1.50
2022-11-18T20:13:01.749Z,-1.50
2022-11-18T20:15:31.248Z,-1.50
2022-11-18T20:18:01.873Z,-1.50
2022-11-18T20:20:33.203Z,-1.50
2022-11-18T20:23:04.428Z,-1.60
2022-11-18T20:25:33.809Z,-1.50
2022-11-18T20:28:02.840Z,-1.50
2022-11-18T20:30:32.839Z,-1.50
2022-11-18T20:33:04.076Z,-1.50
2022-11-18T20:35:36.551Z,-1.50
2022-11-18T20:38:08.112Z,-1.50
2022-11-18T20:40:38.307Z,-1.50
2022-11-18T20:43:14.786Z,-1.50
2022-11-18T20:45:45.926Z,-1.50
2022-11-18T20:48:16.283Z,-1.60
2022-11-18T20:50:46.839Z,-1.60
2022-11-18T20:53:19.792Z,-1.50
2022-11-18T20:55:52.040Z,-1.60
2022-11-18T20:58:22.373Z,-1.60
2022-11-18T21:00:52.674Z,-1.50
2022-11-18T21:03:23.392Z,-1.60
2022-11-18T21:05:55.132Z,-1.70
2022-11-18T21:08:26.646Z,-1.70
2022-11-18T21:10:57.364Z,-1.70
2022-11-18T21:13:45.530Z,-1.70
2022-11-18T21:16:15.243Z,-1.40
2022-11-18T21:18:45.382Z,-1.80
2022-11-18T21:21:32.262Z,-1.70
2022-11-18T21:24:07.101Z,-2.40
2022-11-18T21:26:37.913Z,-1.80
2022-11-18T21:29:09.409Z,-1.80
2022-11-18T21:31:39.734Z,-1.90
2022-11-18T21:34:09.842Z,-1.80
2022-11-18T21:36:45.034Z,-1.90
2022-11-18T21:39:18.486Z,-1.90
2022-11-18T21:41:53.685Z,-1.90
2022-11-18T21:44:25.471Z,-1.90
2022-11-18T21:46:54.424Z,-1.90
2022-11-18T21:49:24.151Z,-1.90
2022-11-18T21:51:53.811Z,-1.90
2022-11-18T21:54:25.423Z,-1.80
2022-11-18T21:56:55.469Z,-1.90
2022-11-18T21:59:25.043Z,-1.90
2022-11-18T22:01:54.884Z,-1.90
2022-11-18T22:04:41.320Z,-1.90
2022-11-18T22:07:11.162Z,-1.90
2022-11-18T22:09:43.186Z,-1.90
2022-11-18T22:12:12.973Z,-1.90
2022-11-18T22:14:43.124Z,-1.90
2022-11-18T22:17:15.428Z,-1.90
2022-11-18T22:19:44.864Z,-1.90
2022-11-18T22:22:14.742Z,-1.90
2022-11-18T22:24:47.464Z,-1.90
2022-11-18T22:27:17.641Z,-1.90
2022-11-18T22:29:47.024Z,-1.90
2022-11-18T22:32:16.007Z,-1.90
2022-11-18T22:34:50.584Z,-1.80
2022-11-18T22:37:21.361Z,-1.90
2022-11-18T22:39:52.958Z,-1.90
2022-11-18T22:42:39.071Z,-1.90
2022-11-18T22:45:09.894Z,-2.00
2022-11-18T22:47:39.765Z,-2.00
2022-11-18T22:50:09.630Z,-2.00
2022-11-18T22:52:39.256Z,-2.00
2022-11-18T22:55:10.776Z,-2.00
2022-11-18T22:57:39.931Z,-2.00
2022-11-18T23:00:11.316Z,-2.10
2022-11-18T23:02:40.947Z,-2.00
2022-11-18T23:05:11.238Z,-2.10
2022-11-18T23:07:45.803Z,-2.10
2022-11-18T23:10:17.414Z,-2.10
2022-11-18T23:13:04.295Z,-2.10
2022-11-18T23:15:35.403Z,-2.10
2022-11-18T23:18:08.781Z,-2.00
2022-11-18T23:20:40.701Z,-2.00
2022-11-18T23:23:09.791Z,-1.50
2022-11-18T23:25:40.007Z,-2.00
2022-11-18T23:28:11.839Z,-2.00
2022-11-18T23:30:47.282Z,-2.00
2022-11-18T23:33:16.447Z,-2.00
2022-11-18T23:35:45.459Z,-2.00
2022-11-18T23:38:14.846Z,-1.60
2022-11-18T23:40:45.338Z,-2.00
2022-11-18T23:43:14.810Z,-2.00
2022-11-18T23:45:46.419Z,-2.00
2022-11-18T23:48:15.680Z,-2.00
2022-11-18T23:50:45.011Z,-2.00
2022-11-18T23:53:16.690Z,-2.00
2022-11-18T23:55:48.175Z,-2.00
2022-11-18T23:58:19.039Z,-2.00
